createdAt,value
2019-05-01T00:03:56.322Z,66.38
2019-05-01T00:07:58.417Z,66.38
2019-05-01T00:12:00.107Z,66.58
2019-05-01T00:16:01.892Z,66.82
2019-05-01T00:20:03.943Z,66.96
2019-05-01T00:24:05.774Z,67.19
2019-05-01T00:28:07.764Z,67.01
2019-05-01T00:32:09.571Z,67.46
2019-05-01T00:36:11.439Z,67.66
2019-05-01T00:40:13.909Z,67.71
2019-05-01T00:44:15.796Z,68.11
2019-05-01T00:48:17.694Z,68.23
2019-05-01T00:52:19.841Z,68.73
2019-05-01T00:56:21.697Z,68.98
2019-05-01T01:00:23.485Z,69.17
2019-05-01T01:04:25.180Z,69.20
2019-05-01T01:08:26.866Z,69.07
2019-05-01T01:12:28.584Z,69.32
2019-05-01T01:16:30.347Z,69.22
2019-05-01T01:20:32.134Z,69.43
2019-05-01T01:24:33.822Z,69.75
2019-05-01T01:28:36.021Z,70.00
2019-05-01T01:32:37.762Z,70.15
2019-05-01T01:36:39.448Z,70.92
2019-05-01T01:40:41.549Z,70.45
2019-05-01T01:44:43.527Z,70.15
2019-05-01T01:48:46.107Z,70.15
2019-05-01T01:52:48.123Z,70.19
2019-05-01T01:57:26.944Z,70.46
2019-05-01T02:01:29.341Z,70.83
2019-05-01T02:05:31.216Z,70.90
2019-05-01T02:09:33.059Z,70.83
2019-05-01T02:13:35.405Z,71.13
2019-05-01T02:17:37.540Z,70.97
2019-05-01T02:21:39.356Z,71.45
2019-05-01T02:25:41.940Z,70.57
2019-05-01T02:29:43.940Z,71.89
2019-05-01T02:33:46.408Z,72.05
2019-05-01T02:37:49.640Z,71.80
2019-05-01T02:41:53.239Z,72.00
2019-05-01T02:45:57.436Z,72.11
2019-05-01T02:50:07.648Z,73.06
2019-05-01T02:54:12.311Z,74.42
2019-05-01T02:58:14.284Z,74.91
2019-05-01T03:02:17.380Z,74.45
2019-05-01T03:06:20.304Z,75.86
2019-05-01T03:10:22.459Z,75.91
2019-05-01T03:14:28.259Z,74.27
2019-05-01T03:18:30.093Z,73.78
2019-05-01T03:22:32.009Z,73.27
2019-05-01T03:26:34.213Z,72.85
2019-05-01T03:30:36.168Z,72.79
2019-05-01T03:34:38.468Z,72.52
2019-05-01T03:38:40.956Z,72.62
2019-05-01T03:42:42.878Z,72.17
2019-05-01T03:46:45.328Z,71.60
2019-05-01T03:50:47.803Z,72.19
2019-05-01T03:54:49.668Z,71.71
2019-05-01T03:58:52.045Z,71.80
2019-05-01T04:02:54.464Z,71.76
2019-05-01T04:06:56.835Z,71.74
2019-05-01T04:10:58.771Z,71.73
2019-05-01T04:15:00.551Z,71.23
2019-05-01T04:19:03.695Z,71.39
2019-05-01T04:23:05.593Z,71.14
2019-05-01T04:27:07.669Z,71.62
2019-05-01T04:31:09.828Z,71.51
2019-05-01T04:35:11.633Z,70.85
2019-05-01T04:39:14.030Z,71.05
2019-05-01T04:43:16.335Z,71.11
2019-05-01T04:47:18.491Z,71.28
2019-05-01T04:51:21.028Z,71.66
2019-05-01T04:55:23.769Z,71.80
2019-05-01T04:59:25.856Z,72.33
2019-05-01T05:03:27.981Z,72.72
2019-05-01T05:07:30.456Z,72.70
2019-05-01T05:11:32.290Z,72.76
2019-05-01T05:15:35.199Z,72.60
2019-05-01T05:19:38.079Z,72.89
2019-05-01T05:23:40.014Z,72.76
2019-05-01T05:27:44.123Z,72.75
2019-05-01T05:31:47.378Z,72.95
2019-05-01T05:35:52.814Z,72.85
2019-05-01T05:39:56.462Z,72.12
2019-05-01T05:43:59.081Z,71.48
2019-05-01T05:48:01.367Z,71.00
2019-05-01T05:52:03.277Z,70.85
2019-05-01T05:56:07.384Z,70.68
2019-05-01T06:00:09.590Z,70.16
2019-05-01T06:04:15.464Z,70.49
2019-05-01T06:08:19.668Z,70.02
2019-05-01T06:12:22.850Z,70.47
2019-05-01T06:16:25.366Z,70.38
2019-05-01T06:20:27.668Z,70.88
2019-05-01T06:24:30.236Z,71.07
2019-05-01T06:28:32.762Z,71.14
2019-05-01T06:32:34.779Z,71.94
2019-05-01T06:36:36.700Z,71.72
2019-05-01T06:40:39.465Z,72.07
2019-05-01T06:44:44.260Z,71.49
2019-05-01T06:48:48.818Z,71.87
2019-05-01T06:52:51.860Z,71.77
2019-05-01T06:56:55.128Z,71.77
2019-05-01T07:00:57.034Z,71.86
2019-05-01T07:05:01.020Z,71.67
2019-05-01T07:09:06.931Z,70.98
2019-05-01T07:13:08.393Z,70.60
2019-05-01T07:17:13.650Z,71.33
2019-05-01T07:21:14.479Z,71.38
2019-05-01T07:25:17.456Z,71.97
2019-05-01T07:29:19.764Z,71.16
2019-05-01T07:33:22.408Z,71.91
2019-05-01T07:37:25.998Z,71.41
2019-05-01T07:41:28.595Z,70.84
2019-05-01T07:45:30.917Z,71.65
2019-05-01T07:50:05.953Z,71.64
2019-05-01T07:54:08.960Z,71.43
2019-05-01T07:58:15.819Z,71.57
2019-05-01T08:02:15.049Z,70.43
2019-05-01T08:06:21.853Z,71.01
2019-05-01T08:10:25.470Z,70.39
2019-05-01T08:14:25.275Z,69.81
2019-05-01T08:18:27.882Z,70.15
2019-05-01T08:22:32.057Z,70.15
2019-05-01T08:26:35.374Z,70.93
2019-05-01T08:30:37.273Z,70.93
2019-05-01T08:34:48.737Z,72.09
2019-05-01T08:38:43.517Z,72.15
2019-05-01T08:42:45.493Z,71.46
2019-05-01T08:46:51.069Z,71.13
2019-05-01T08:50:54.502Z,69.32
2019-05-01T08:54:56.045Z,70.68
2019-05-01T08:58:58.593Z,70.43
2019-05-01T09:03:08.139Z,70.05
2019-05-01T09:07:04.843Z,70.08
2019-05-01T09:11:06.719Z,69.41
2019-05-01T09:15:12.859Z,66.94
2019-05-01T09:19:13.727Z,66.94
2019-05-01T09:23:16.150Z,67.93
2019-05-01T09:27:18.827Z,66.69
2019-05-01T09:31:21.010Z,66.69
2019-05-01T09:35:22.843Z,66.48
2019-05-01T09:39:24.844Z,66.75
2019-05-01T09:43:30.890Z,66.59
2019-05-01T09:47:30.906Z,66.06
2019-05-01T09:51:32.963Z,66.40
2019-05-01T09:55:34.861Z,66.40
2019-05-01T09:59:37.768Z,66.25
2019-05-01T10:03:39.699Z,67.95
2019-05-01T10:07:41.602Z,66.74
2019-05-01T10:11:43.861Z,66.74
2019-05-01T10:15:45.835Z,65.82
2019-05-01T10:19:50.098Z,65.32
2019-05-01T10:23:52.955Z,65.05
2019-05-01T10:27:55.071Z,66.38
2019-05-01T10:31:57.315Z,64.72
2019-05-01T10:35:59.786Z,65.63
2019-05-01T10:40:02.897Z,67.00
2019-05-01T10:44:05.310Z,67.00
2019-05-01T10:48:07.183Z,64.34
2019-05-01T10:52:14.330Z,64.34
2019-05-01T10:56:12.877Z,64.86
2019-05-01T11:00:15.410Z,64.88
2019-05-01T11:04:17.571Z,65.26
2019-05-01T11:08:19.927Z,66.35
2019-05-01T11:12:22.115Z,64.48
2019-05-01T11:16:24.007Z,65.20
2019-05-01T11:20:26.675Z,64.37
2019-05-01T11:24:28.664Z,63.68
2019-05-01T11:28:30.716Z,64.04
2019-05-01T11:32:32.930Z,63.91
2019-05-01T11:36:35.416Z,62.88
2019-05-01T11:40:38.114Z,61.83
2019-05-01T11:44:40.537Z,61.59
2019-05-01T11:48:44.415Z,61.77
2019-05-01T11:52:46.652Z,60.53
2019-05-01T11:56:48.640Z,60.67
2019-05-01T12:00:51.118Z,60.47
2019-05-01T12:04:53.307Z,61.93
2019-05-01T12:08:55.133Z,62.38
2019-05-01T12:12:57.321Z,61.12
2019-05-01T12:16:59.227Z,61.13
2019-05-01T12:21:01.051Z,59.79
2019-05-01T12:25:03.976Z,58.75
2019-05-01T12:29:06.150Z,60.75
2019-05-01T12:33:08.187Z,58.88
2019-05-01T12:37:10.182Z,60.18
2019-05-01T12:41:12.680Z,59.16
2019-05-01T12:45:15.360Z,58.63
2019-05-01T12:49:17.220Z,58.63
2019-05-01T12:53:19.752Z,58.10
2019-05-01T12:57:21.650Z,58.62
2019-05-01T13:01:23.601Z,57.67
2019-05-01T13:05:25.431Z,56.32
2019-05-01T13:09:27.718Z,56.04
2019-05-01T13:13:29.715Z,57.81
2019-05-01T13:17:32.294Z,57.36
2019-05-01T13:21:34.561Z,55.63
2019-05-01T13:25:36.744Z,56.08
2019-05-01T13:29:38.578Z,54.90
2019-05-01T13:33:40.461Z,54.90
2019-05-01T13:37:42.933Z,54.39
2019-05-01T13:41:45.179Z,52.61
2019-05-01T13:45:47.297Z,52.50
2019-05-01T13:49:49.159Z,55.17
2019-05-01T13:53:51.387Z,54.72
2019-05-01T13:57:53.216Z,54.54
2019-05-01T14:01:55.279Z,52.83
2019-05-01T14:05:57.075Z,54.13
2019-05-01T14:09:59.243Z,54.89
2019-05-01T14:14:01.436Z,55.47
2019-05-01T14:18:04.267Z,56.17
2019-05-01T14:22:06.487Z,53.51
2019-05-01T14:26:08.429Z,52.71
2019-05-01T14:30:11.205Z,54.55
2019-05-01T14:34:13.802Z,55.55
2019-05-01T14:38:15.820Z,54.51
2019-05-01T14:42:17.763Z,54.04
2019-05-01T14:46:19.753Z,52.76
2019-05-01T14:50:22.206Z,51.85
2019-05-01T14:54:24.549Z,53.32
2019-05-01T14:58:26.442Z,52.80
2019-05-01T15:02:28.450Z,52.29
2019-05-01T15:06:30.569Z,52.13
2019-05-01T15:10:32.525Z,51.60
2019-05-01T15:14:34.436Z,49.27
2019-05-01T15:18:36.595Z,48.59
2019-05-01T15:22:38.812Z,48.30
2019-05-01T15:26:40.696Z,48.21
2019-05-01T15:30:42.586Z,47.75
2019-05-01T15:34:44.876Z,48.11
2019-05-01T15:38:46.740Z,48.13
2019-05-01T15:42:48.593Z,46.64
2019-05-01T15:46:50.469Z,46.27
2019-05-01T15:50:52.358Z,47.73
2019-05-01T15:54:54.393Z,47.86
2019-05-01T15:58:56.816Z,49.71
2019-05-01T16:02:58.713Z,48.54
2019-05-01T16:07:01.287Z,48.54
2019-05-01T16:11:03.586Z,49.28
2019-05-01T16:15:07.049Z,49.51
2019-05-01T16:19:08.957Z,49.88
2019-05-01T16:23:11.130Z,50.53
2019-05-01T16:27:13.491Z,50.30
2019-05-01T16:31:15.677Z,50.57
2019-05-01T16:35:17.838Z,51.62
2019-05-01T16:39:20.187Z,50.70
2019-05-01T16:43:22.074Z,51.12
2019-05-01T16:47:24.335Z,51.72
2019-05-01T16:51:26.338Z,51.49
2019-05-01T16:55:28.233Z,49.91
2019-05-01T16:59:30.096Z,49.03
2019-05-01T17:03:32.078Z,48.50
2019-05-01T17:07:33.976Z,46.80
2019-05-01T17:11:35.841Z,46.09
2019-05-01T17:15:38.137Z,45.50
2019-05-01T17:19:40.322Z,46.24
2019-05-01T17:23:42.150Z,45.45
2019-05-01T17:27:43.994Z,44.53
2019-05-01T17:31:45.886Z,43.15
2019-05-01T17:35:48.660Z,43.72
2019-05-01T17:39:50.481Z,42.27
2019-05-01T17:43:52.324Z,43.31
2019-05-01T17:47:57.982Z,44.80
2019-05-01T17:51:58.125Z,46.61
2019-05-01T17:56:00.020Z,48.23
2019-05-01T18:00:02.475Z,51.01
2019-05-01T18:04:04.316Z,52.78
2019-05-01T18:08:06.129Z,54.03
2019-05-01T18:12:08.027Z,54.95
2019-05-01T18:16:09.985Z,55.68
2019-05-01T18:20:11.919Z,56.84
2019-05-01T18:24:14.278Z,57.03
2019-05-01T18:28:17.167Z,56.35
2019-05-01T18:32:19.102Z,56.93
2019-05-01T18:36:24.547Z,57.30
2019-05-01T18:40:24.871Z,57.78
2019-05-01T18:44:27.009Z,58.41
2019-05-01T18:48:28.782Z,58.90
2019-05-01T18:52:30.638Z,58.95
2019-05-01T18:56:32.868Z,59.20
2019-05-01T19:00:35.138Z,59.64
2019-05-01T19:04:37.832Z,59.96
2019-05-01T19:08:39.711Z,60.46
2019-05-01T19:12:41.642Z,60.83
2019-05-01T19:16:45.162Z,61.08
2019-05-01T19:20:58.806Z,61.29
2019-05-01T19:24:51.533Z,61.55
2019-05-01T19:28:53.895Z,61.57
2019-05-01T19:32:55.869Z,61.65
2019-05-01T19:36:57.929Z,61.71
2019-05-01T19:41:18.629Z,62.04
2019-05-01T19:45:39.254Z,62.33
2019-05-01T19:50:06.476Z,62.61
2019-05-01T19:54:23.108Z,62.97
2019-05-01T19:58:45.677Z,62.70
2019-05-01T20:03:06.395Z,62.91
2019-05-01T20:07:27.314Z,63.26
2019-05-01T20:11:47.873Z,63.20
2019-05-01T20:16:08.462Z,63.40
2019-05-01T20:20:29.164Z,63.38
2019-05-01T20:24:50.607Z,63.69
2019-05-01T20:29:11.038Z,63.75
2019-05-01T20:33:33.457Z,63.41
2019-05-01T20:37:54.457Z,63.57
2019-05-01T20:42:15.441Z,63.79
2019-05-01T20:46:36.640Z,64.20
2019-05-01T20:50:58.769Z,64.54
2019-05-01T20:55:20.140Z,64.61
2019-05-01T20:59:40.974Z,64.78
2019-05-01T21:04:02.207Z,65.12
2019-05-01T21:08:23.228Z,65.55
2019-05-01T21:12:44.393Z,64.96
2019-05-01T21:17:09.469Z,65.55
2019-05-01T21:21:28.581Z,65.83
2019-05-01T21:25:50.655Z,66.06
2019-05-01T21:30:13.710Z,66.60
2019-05-01T21:34:34.475Z,66.19
2019-05-01T21:38:56.463Z,66.49
2019-05-01T21:43:17.752Z,66.49
2019-05-01T21:47:39.187Z,66.03
2019-05-01T21:52:03.765Z,65.42
2019-05-01T21:56:24.206Z,66.41
2019-05-01T22:00:45.856Z,66.88
2019-05-01T22:05:06.502Z,67.43
2019-05-01T22:09:27.031Z,67.64
2019-05-01T22:13:48.190Z,67.88
2019-05-01T22:18:10.826Z,68.00
2019-05-01T22:22:31.884Z,68.31
2019-05-01T22:26:52.455Z,68.77
2019-05-01T22:31:16.822Z,68.43
2019-05-01T22:35:35.561Z,68.43
2019-05-01T22:39:56.315Z,68.43
2019-05-01T22:44:18.050Z,68.31
2019-05-01T22:48:40.021Z,69.22
2019-05-01T22:53:00.377Z,68.68
2019-05-01T22:57:21.130Z,67.77
2019-05-01T23:01:42.446Z,67.67
2019-05-01T23:06:06.358Z,67.67
2019-05-01T23:10:25.752Z,67.04
2019-05-01T23:14:47.040Z,66.99
2019-05-01T23:19:07.759Z,66.86
2019-05-01T23:23:28.558Z,66.72
2019-05-01T23:27:49.839Z,67.52
2019-05-01T23:32:10.303Z,67.98
2019-05-01T23:36:30.800Z,68.39
2019-05-01T23:40:52.970Z,67.70
2019-05-01T23:45:14.185Z,67.95
2019-05-01T23:49:34.996Z,68.90
2019-05-01T23:53:55.778Z,68.77
2019-05-01T23:58:16.424Z,68.86
